createdAt,value
2023-04-15T00:01:03.965Z,98791.50
2023-04-15T00:04:06.347Z,98783.72
2023-04-15T00:07:08.773Z,98782.25
2023-04-15T00:10:10.949Z,98778.97
2023-04-15T00:13:12.888Z,98776.56
2023-04-15T00:16:14.805Z,98782.00
2023-04-15T00:19:16.871Z,98781.25
2023-04-15T00:22:18.807Z,98779.56
2023-04-15T00:25:20.761Z,98778.81
2023-04-15T00:28:22.830Z,98777.12
2023-04-15T00:31:24.842Z,98775.47
2023-04-15T00:34:28.020Z,98784.16
2023-04-15T00:37:30.581Z,98781.56
2023-04-15T00:40:33.491Z,98780.47
2023-04-15T00:43:35.576Z,98776.19
2023-04-15T00:46:39.370Z,98782.19
2023-04-15T00:49:41.588Z,98781.03
2023-04-15T00:52:43.498Z,98780.09
2023-04-15T00:55:45.518Z,98783.47
2023-04-15T00:58:48.320Z,98774.66
2023-04-15T01:01:50.788Z,98778.88
2023-04-15T01:04:53.207Z,98765.87
2023-04-15T01:07:55.414Z,98776.34
2023-04-15T01:10:58.770Z,98769.41
2023-04-15T01:14:01.885Z,98775.41
2023-04-15T01:17:03.854Z,98766.50
2023-04-15T01:20:07.024Z,98766.06
2023-04-15T01:23:09.836Z,98767.34
2023-04-15T01:26:12.175Z,98771.75
2023-04-15T01:29:14.212Z,98767.22
2023-04-15T01:32:16.577Z,98772.41
2023-04-15T01:35:18.878Z,98768.81
2023-04-15T01:38:20.923Z,98770.53
2023-04-15T01:41:28.568Z,98774.72
2023-04-15T01:44:30.813Z,98775.47
2023-04-15T01:47:32.778Z,98772.94
2023-04-15T01:50:36.956Z,98763.19
2023-04-15T01:53:38.873Z,98767.59
2023-04-15T01:56:40.839Z,98771.06
2023-04-15T01:59:42.810Z,98774.44
2023-04-15T02:02:45.018Z,98769.06
2023-04-15T02:05:47.163Z,98771.81
2023-04-15T02:08:49.033Z,98776.84
2023-04-15T02:11:52.194Z,98789.97
2023-04-15T02:14:54.293Z,98783.78
2023-04-15T02:17:57.055Z,98777.56
2023-04-15T02:20:59.181Z,98780.31
2023-04-15T02:24:02.424Z,98766.44
2023-04-15T02:27:04.535Z,98781.25
2023-04-15T02:30:07.644Z,98774.22
2023-04-15T02:33:10.142Z,98780.19
2023-04-15T02:36:12.587Z,98780.19
2023-04-15T02:39:16.912Z,98773.28
2023-04-15T02:42:19.324Z,98777.56
2023-04-15T02:45:24.239Z,98773.19
2023-04-15T02:48:26.212Z,98772.25
2023-04-15T02:51:31.605Z,98770.47
2023-04-15T02:54:34.173Z,98765.97
2023-04-15T02:57:40.811Z,98764.06
2023-04-15T03:00:42.886Z,98765.97
2023-04-15T03:03:45.017Z,98771.69
2023-04-15T03:06:47.610Z,98772.41
2023-04-15T03:09:49.611Z,98771.47
2023-04-15T03:12:51.783Z,98767.91
2023-04-15T03:15:53.724Z,98763.50
2023-04-15T03:18:56.366Z,98760.88
2023-04-15T03:21:58.491Z,98770.44
2023-04-15T03:25:00.554Z,98768.53
2023-04-15T03:28:02.512Z,98768.53
2023-04-15T03:31:04.597Z,98770.97
2023-04-15T03:34:06.736Z,98778.97
2023-04-15T03:37:08.836Z,98778.09
2023-04-15T03:40:11.625Z,98771.91
2023-04-15T03:43:13.734Z,98778.97
2023-04-15T03:46:15.787Z,98775.47
2023-04-15T03:49:19.384Z,98785.03
2023-04-15T03:52:24.035Z,98778.84
2023-04-15T03:55:26.154Z,98778.84
2023-04-15T03:58:28.145Z,98784.22
2023-04-15T04:01:30.207Z,98785.88
2023-04-15T04:04:32.207Z,98782.31
2023-04-15T04:07:34.205Z,98784.22
2023-04-15T04:10:36.146Z,98788.59
2023-04-15T04:13:38.095Z,98789.53
2023-04-15T04:16:40.107Z,98796.56
2023-04-15T04:19:42.018Z,98781.78
2023-04-15T04:22:44.047Z,98793.94
2023-04-15T04:25:46.336Z,98793.12
2023-04-15T04:28:48.663Z,98790.69
2023-04-15T04:31:50.609Z,98800.25
2023-04-15T04:34:52.582Z,98801.06
2023-04-15T04:38:01.430Z,98801.94
2023-04-15T04:41:03.422Z,98797.94
2023-04-15T04:44:05.480Z,98810.66
2023-04-15T04:47:07.830Z,98813.16
2023-04-15T04:50:10.412Z,98810.53
2023-04-15T04:53:12.554Z,98813.16
2023-04-15T04:56:14.401Z,98810.53
2023-04-15T04:59:17.979Z,98814.84
2023-04-15T05:02:21.659Z,98812.00
2023-04-15T05:05:23.730Z,98808.56
2023-04-15T05:08:25.948Z,98804.69
2023-04-15T05:11:28.399Z,98812.47
2023-04-15T05:14:30.751Z,98821.00
2023-04-15T05:17:33.524Z,98821.72
2023-04-15T05:20:35.587Z,98821.63
2023-04-15T05:23:41.049Z,98811.13
2023-04-15T05:26:43.056Z,98821.50
2023-04-15T05:29:45.208Z,98823.22
2023-04-15T05:32:47.289Z,98825.72
2023-04-15T05:35:49.203Z,98838.78
2023-04-15T05:38:51.437Z,98840.53
2023-04-15T05:41:54.468Z,98838.03
2023-04-15T05:44:56.491Z,98826.13
2023-04-15T05:47:58.604Z,98833.53
2023-04-15T05:51:01.468Z,98835.00
2023-04-15T05:54:03.827Z,98843.59
2023-04-15T05:57:05.835Z,98846.78
2023-04-15T06:00:08.300Z,98848.25
2023-04-15T06:03:11.994Z,98842.06
2023-04-15T06:06:14.465Z,98849.75
2023-04-15T06:09:17.006Z,98849.75
2023-04-15T06:12:19.009Z,98858.34
2023-04-15T06:15:21.086Z,98859.94
2023-04-15T06:18:23.001Z,98859.22
2023-04-15T06:21:25.071Z,98859.22
2023-04-15T06:24:27.213Z,98860.50
2023-04-15T06:27:29.299Z,98865.84
2023-04-15T06:30:31.353Z,98863.84
2023-04-15T06:33:33.327Z,98873.97
2023-04-15T06:36:35.253Z,98880.16
2023-04-15T06:39:37.853Z,98881.13
2023-04-15T06:42:39.976Z,98875.66
2023-04-15T06:45:41.964Z,98877.53
2023-04-15T06:48:44.487Z,98900.44
2023-04-15T06:51:46.419Z,98903.63
2023-04-15T06:54:48.432Z,98899.19
2023-04-15T06:57:50.417Z,98895.53
2023-04-15T07:00:53.198Z,98910.47
2023-04-15T07:03:55.543Z,98909.63
2023-04-15T07:06:57.532Z,98915.81
2023-04-15T07:10:00.092Z,98908.03
2023-04-15T07:13:02.227Z,98917.72
2023-04-15T07:16:04.689Z,98919.37
2023-04-15T07:19:06.728Z,98925.59
2023-04-15T07:22:09.249Z,98923.81
2023-04-15T07:25:11.261Z,98925.38
2023-04-15T07:28:14.607Z,98925.72
2023-04-15T07:31:17.543Z,98927.09
2023-04-15T07:34:20.890Z,98935.50
2023-04-15T07:37:22.973Z,98936.78
2023-04-15T07:40:25.126Z,98937.91
2023-04-15T07:43:27.621Z,98944.69
2023-04-15T07:46:30.026Z,98952.88
2023-04-15T07:49:32.265Z,98946.97
2023-04-15T07:52:39.208Z,98950.25
2023-04-15T07:55:41.212Z,98954.38
2023-04-15T07:58:43.681Z,98958.34
2023-04-15T08:01:45.645Z,98957.53
2023-04-15T08:04:48.084Z,98967.62
2023-04-15T08:07:50.880Z,98967.00
2023-04-15T08:10:53.121Z,98969.50
2023-04-15T08:13:55.193Z,98967.75
2023-04-15T08:16:57.290Z,98973.84
2023-04-15T08:19:59.248Z,98973.44
2023-04-15T08:23:01.192Z,98976.06
2023-04-15T08:26:03.248Z,98974.47
2023-04-15T08:29:05.494Z,98979.19
2023-04-15T08:32:07.890Z,98977.59
2023-04-15T08:35:10.567Z,98978.69
2023-04-15T08:38:12.681Z,98972.66
2023-04-15T08:41:23.617Z,98984.22
2023-04-15T08:44:29.381Z,98990.53
2023-04-15T08:47:33.874Z,98991.06
2023-04-15T08:50:35.976Z,98993.88
2023-04-15T08:53:37.913Z,98992.38
2023-04-15T08:56:40.876Z,98999.94
2023-04-15T08:59:44.015Z,99001.66
2023-04-15T09:02:46.995Z,99004.78
2023-04-15T09:05:51.406Z,99005.69
2023-04-15T09:08:54.943Z,99006.34
2023-04-15T09:11:57.151Z,99000.69
2023-04-15T09:14:59.356Z,99013.97
2023-04-15T09:18:01.383Z,99012.28
2023-04-15T09:21:14.981Z,99019.66
2023-04-15T09:24:17.289Z,99013.84
2023-04-15T09:27:19.258Z,99016.84
2023-04-15T09:30:21.400Z,99025.22
2023-04-15T09:33:24.004Z,99024.53
2023-04-15T09:36:29.924Z,99025.47
2023-04-15T09:39:52.816Z,99022.84
2023-04-15T09:42:57.675Z,99025.37
2023-04-15T09:45:59.698Z,99027.81
2023-04-15T09:49:09.414Z,99032.25
2023-04-15T09:52:14.418Z,99018.56
2023-04-15T09:55:18.964Z,99015.81
2023-04-15T09:58:27.775Z,99026.78
2023-04-15T10:01:29.911Z,99025.59
2023-04-15T10:04:37.298Z,99022.66
2023-04-15T10:07:43.958Z,99023.56
2023-04-15T10:10:48.894Z,99026.28
2023-04-15T10:13:53.300Z,99024.75
2023-04-15T10:17:00.683Z,99017.44
2023-04-15T10:20:05.611Z,99016.19
2023-04-15T10:23:12.859Z,99016.28
2023-04-15T10:26:17.918Z,99016.88
2023-04-15T10:29:21.539Z,99019.09
2023-04-15T10:32:26.806Z,99006.44
2023-04-15T10:35:31.670Z,99007.75
2023-04-15T10:38:42.908Z,99009.00
2023-04-15T10:41:44.943Z,99008.41
2023-04-15T10:44:56.580Z,98999.22
2023-04-15T10:48:03.441Z,98992.38
2023-04-15T10:51:05.891Z,99002.47
2023-04-15T10:54:16.447Z,98999.19
2023-04-15T10:57:24.672Z,98997.72
2023-04-15T11:00:31.917Z,99003.34
2023-04-15T11:03:41.923Z,99001.34
2023-04-15T11:06:45.748Z,98999.78
2023-04-15T11:09:47.929Z,98993.41
2023-04-15T11:12:52.890Z,98998.81
2023-04-15T11:15:58.500Z,98998.00
2023-04-15T11:19:01.765Z,99005.19
2023-04-15T11:22:10.853Z,98997.06
2023-04-15T11:25:29.733Z,98993.53
2023-04-15T11:28:33.542Z,98994.22
2023-04-15T11:31:35.614Z,98994.81
2023-04-15T11:34:37.682Z,98998.19
2023-04-15T11:37:39.641Z,98996.63
2023-04-15T11:40:44.525Z,98989.78
2023-04-15T11:43:48.310Z,98993.69
2023-04-15T11:46:50.514Z,98995.66
2023-04-15T11:49:52.657Z,99004.03
2023-04-15T11:52:59.825Z,98996.91
2023-04-15T11:56:02.057Z,99005.16
2023-04-15T11:59:04.500Z,99007.75
2023-04-15T12:02:15.413Z,99009.28
2023-04-15T12:05:17.480Z,99017.03
2023-04-15T12:08:19.527Z,99029.03
2023-04-15T12:11:27.474Z,99068.81
2023-04-15T12:14:31.412Z,99088.81
2023-04-15T12:17:51.286Z,99105.50
2023-04-15T12:20:54.723Z,99108.38
2023-04-15T12:23:58.267Z,99109.44
2023-04-15T12:27:05.878Z,99106.97
2023-04-15T12:30:09.067Z,99087.88
2023-04-15T12:33:12.134Z,99080.31
2023-04-15T12:36:14.449Z,99069.53
2023-04-15T12:39:16.598Z,99063.03
2023-04-15T12:42:19.110Z,99066.94
2023-04-15T12:45:21.548Z,99064.44
2023-04-15T12:48:23.760Z,99067.69
2023-04-15T12:51:27.427Z,99073.84
2023-04-15T12:54:31.111Z,99073.47
2023-04-15T12:57:33.226Z,99087.34
2023-04-15T13:00:35.675Z,99092.72
2023-04-15T13:03:38.135Z,99111.59
2023-04-15T13:06:41.126Z,99113.78
2023-04-15T13:09:43.202Z,99128.56
2023-04-15T13:12:47.046Z,99137.91
2023-04-15T13:15:49.080Z,99137.84
2023-04-15T13:18:51.113Z,99143.59
2023-04-15T13:21:53.286Z,99145.53
2023-04-15T13:24:55.387Z,99140.72
2023-04-15T13:27:57.825Z,99148.75
2023-04-15T13:31:00.508Z,99145.09
2023-04-15T13:34:03.065Z,99143.09
2023-04-15T13:37:08.881Z,99122.41
2023-04-15T13:40:11.967Z,99111.38
2023-04-15T13:43:14.052Z,99103.47
2023-04-15T13:46:16.330Z,99090.28
2023-04-15T13:49:18.789Z,99086.28
2023-04-15T13:52:21.107Z,99079.13
2023-04-15T13:55:25.457Z,99091.34
2023-04-15T13:58:28.598Z,99094.75
2023-04-15T14:01:31.291Z,99091.94
2023-04-15T14:04:33.652Z,99096.56
2023-04-15T14:07:36.015Z,99101.94
2023-04-15T14:10:38.373Z,99102.41
2023-04-15T14:13:41.155Z,99097.28
2023-04-15T14:16:43.156Z,99098.34
2023-04-15T14:19:45.309Z,99098.72
2023-04-15T14:22:47.467Z,99103.13
2023-04-15T14:25:50.360Z,99105.72
2023-04-15T14:28:52.335Z,99109.44
2023-04-15T14:32:06.826Z,99120.84
2023-04-15T14:35:13.989Z,99113.59
2023-04-15T14:38:16.424Z,99124.03
2023-04-15T14:41:18.615Z,99126.75
2023-04-15T14:44:20.539Z,99131.53
2023-04-15T14:47:22.863Z,99137.97
2023-04-15T14:50:25.104Z,99138.66
2023-04-15T14:53:27.486Z,99146.41
2023-04-15T14:56:29.493Z,99151.00
2023-04-15T14:59:31.694Z,99152.50
2023-04-15T15:05:41.370Z,99157.69
2023-04-15T15:08:44.631Z,99169.97
2023-04-15T15:11:47.569Z,99166.12
2023-04-15T15:14:51.366Z,99169.47
2023-04-15T15:17:55.321Z,99165.66
2023-04-15T15:20:57.914Z,99178.37
2023-04-15T15:24:00.792Z,99169.28
2023-04-15T15:27:03.105Z,99178.87
2023-04-15T15:30:06.968Z,99175.03
2023-04-15T15:33:09.092Z,99185.50
2023-04-15T15:36:11.392Z,99186.09
2023-04-15T15:39:13.597Z,99187.66
2023-04-15T15:42:15.533Z,99187.28
2023-04-15T15:45:18.008Z,99183.22
2023-04-15T15:48:20.500Z,99186.06
2023-04-15T15:51:22.671Z,99199.41
2023-04-15T15:54:25.155Z,99201.94
2023-04-15T15:57:27.138Z,99195.44
2023-04-15T16:00:29.271Z,99195.13
2023-04-15T16:03:31.636Z,99206.47
2023-04-15T16:06:35.034Z,99206.97
2023-04-15T16:09:37.705Z,99203.38
2023-04-15T16:12:40.911Z,99199.28
2023-04-15T16:15:42.878Z,99205.28
2023-04-15T16:18:44.803Z,99204.88
2023-04-15T16:21:47.044Z,99199.94
2023-04-15T16:24:49.609Z,99205.00
2023-04-15T16:28:01.323Z,99202.88
2023-04-15T16:31:05.521Z,99188.41
2023-04-15T16:34:07.585Z,99210.16
2023-04-15T16:37:11.060Z,99215.16
2023-04-15T16:40:13.589Z,99221.50
2023-04-15T16:43:16.824Z,99226.31
2023-04-15T16:46:20.490Z,99224.50
2023-04-15T16:49:24.356Z,99237.81
2023-04-15T16:52:29.722Z,99233.63
2023-04-15T16:55:33.682Z,99228.78
2023-04-15T16:58:38.048Z,99241.47
2023-04-15T17:01:42.285Z,99242.94
2023-04-15T17:04:45.855Z,99254.91
2023-04-15T17:07:50.455Z,99259.91
2023-04-15T17:10:55.845Z,99263.72
2023-04-15T17:13:59.656Z,99258.75
2023-04-15T17:17:03.897Z,99259.94
2023-04-15T17:20:08.467Z,99262.16
2023-04-15T17:23:12.660Z,99268.31
2023-04-15T17:26:16.514Z,99272.13
2023-04-15T17:29:20.406Z,99278.88
2023-04-15T17:32:25.508Z,99283.00
2023-04-15T17:35:29.175Z,99283.22
2023-04-15T17:38:32.796Z,99288.38
2023-04-15T17:41:36.760Z,99291.13
2023-04-15T17:44:41.963Z,99302.53
2023-04-15T17:47:45.420Z,99300.63
2023-04-15T17:50:48.888Z,99301.56
2023-04-15T17:53:52.825Z,99305.91
2023-04-15T17:56:57.149Z,99317.59
2023-04-15T18:00:00.023Z,99314.34
2023-04-15T18:03:02.289Z,99322.34
2023-04-15T18:06:05.111Z,99331.22
2023-04-15T18:09:09.484Z,99334.88
2023-04-15T18:12:12.005Z,99346.41
2023-04-15T18:15:14.955Z,99350.81
2023-04-15T18:18:17.691Z,99362.31
2023-04-15T18:21:21.874Z,99370.44
2023-04-15T18:24:24.645Z,99379.06
2023-04-15T18:27:28.252Z,99379.81
2023-04-15T18:30:30.766Z,99383.37
2023-04-15T18:33:33.939Z,99393.09
2023-04-15T18:36:37.239Z,99397.31
2023-04-15T18:39:40.286Z,99404.28
2023-04-15T18:42:43.517Z,99405.16
2023-04-15T18:45:46.334Z,99400.91
2023-04-15T18:48:50.757Z,99408.06
2023-04-15T18:51:53.770Z,99412.38
2023-04-15T18:54:56.410Z,99417.47
2023-04-15T18:58:06.567Z,99419.91
2023-04-15T19:01:12.023Z,99424.97
2023-04-15T19:04:18.071Z,99428.87
2023-04-15T19:07:20.946Z,99431.72
2023-04-15T19:10:23.948Z,99439.72
2023-04-15T19:13:26.956Z,99447.81
2023-04-15T19:16:29.720Z,99453.50
2023-04-15T19:19:32.386Z,99454.75
2023-04-15T19:22:38.450Z,99458.44
2023-04-15T19:25:41.745Z,99461.63
2023-04-15T19:28:44.665Z,99465.41
2023-04-15T19:31:47.460Z,99473.41
2023-04-15T19:34:52.852Z,99476.13
2023-04-15T19:37:55.802Z,99469.16
2023-04-15T19:41:00.863Z,99472.75
2023-04-15T19:44:05.207Z,99482.44
2023-04-15T19:47:08.541Z,99480.97
2023-04-15T19:50:12.530Z,99482.91
2023-04-15T19:53:15.083Z,99486.50
2023-04-15T19:56:18.455Z,99487.66
2023-04-15T19:59:21.478Z,99496.38
2023-04-15T20:02:24.247Z,99486.16
2023-04-15T20:05:27.143Z,99490.56
2023-04-15T20:08:29.731Z,99489.72
2023-04-15T20:12:05.118Z,99486.34
2023-04-15T20:14:54.868Z,99484.75
2023-04-15T20:17:57.197Z,99479.75
2023-04-15T20:20:59.975Z,99479.75
2023-04-15T20:24:02.694Z,99482.37
2023-04-15T20:27:05.084Z,99481.47
2023-04-15T20:30:08.553Z,99490.28
2023-04-15T20:33:11.404Z,99487.00
2023-04-15T20:36:13.824Z,99482.75
2023-04-15T20:39:16.705Z,99482.94
2023-04-15T20:42:20.219Z,99480.50
2023-04-15T20:45:22.880Z,99468.84
2023-04-15T20:48:25.110Z,99487.75
2023-04-15T20:51:27.756Z,99494.16
2023-04-15T20:54:30.477Z,99492.47
2023-04-15T20:57:44.404Z,99489.84
2023-04-15T21:00:46.957Z,99496.03
2023-04-15T21:03:49.151Z,99492.75
2023-04-15T21:06:52.600Z,99499.97
2023-04-15T21:09:56.333Z,99490.47
2023-04-15T21:12:58.688Z,99499.31
2023-04-15T21:16:00.840Z,99505.91
2023-04-15T21:19:03.110Z,99509.56
2023-04-15T21:22:05.435Z,99520.37
2023-04-15T21:25:07.944Z,99522.50
2023-04-15T21:28:10.307Z,99513.94
2023-04-15T21:31:12.262Z,99514.31
2023-04-15T21:34:14.253Z,99516.38
2023-04-15T21:37:16.335Z,99520.03
2023-04-15T21:40:19.532Z,99528.28
2023-04-15T21:43:23.019Z,99527.63
2023-04-15T21:46:32.583Z,99518.22
2023-04-15T21:49:35.076Z,99526.28
2023-04-15T21:52:37.453Z,99525.69
2023-04-15T21:55:39.337Z,99527.66
2023-04-15T21:58:41.339Z,99533.78
2023-04-15T22:01:43.406Z,99538.28
2023-04-15T22:04:45.416Z,99539.31
2023-04-15T22:07:47.462Z,99540.31
2023-04-15T22:10:49.440Z,99547.38
2023-04-15T22:13:51.490Z,99539.66
2023-04-15T22:16:53.522Z,99546.09
2023-04-15T22:19:55.625Z,99548.66
2023-04-15T22:22:57.827Z,99552.13
2023-04-15T22:26:00.141Z,99552.88
2023-04-15T22:29:02.204Z,99564.25
2023-04-15T22:32:04.520Z,99569.75
2023-04-15T22:35:07.118Z,99568.81
2023-04-15T22:38:09.122Z,99574.78
2023-04-15T22:41:11.510Z,99575.63
2023-04-15T22:44:13.496Z,99582.75
2023-04-15T22:47:15.560Z,99579.44
2023-04-15T22:50:17.738Z,99586.47
2023-04-15T22:53:20.191Z,99591.06
2023-04-15T22:56:23.007Z,99595.44
2023-04-15T22:59:25.486Z,99591.91
2023-04-15T23:02:28.011Z,99597.16
2023-04-15T23:05:30.415Z,99596.50
2023-04-15T23:08:32.573Z,99613.63
2023-04-15T23:11:34.752Z,99613.69
2023-04-15T23:14:36.817Z,99614.78
2023-04-15T23:17:38.902Z,99607.84
2023-04-15T23:20:41.201Z,99612.09
2023-04-15T23:23:43.225Z,99609.63
2023-04-15T23:26:45.122Z,99619.31
2023-04-15T23:29:47.124Z,99618.38
2023-04-15T23:32:49.541Z,99617.53
2023-04-15T23:35:52.132Z,99624.56
2023-04-15T23:38:54.500Z,99619.22
2023-04-15T23:41:57.213Z,99627.78
2023-04-15T23:44:59.090Z,99626.81
2023-04-15T23:48:01.309Z,99624.97
2023-04-15T23:51:03.597Z,99624.97
2023-04-15T23:54:05.721Z,99626.81
2023-04-15T23:57:07.732Z,99627.78
